Terminal Aerodrome Forecast
Issued by NWS

Home | Current Version | Previous Version | Text Only | Print | Product List | Glossary On
Versions: 1 2 3 4 5 6 7 8 9 10 11 12 13 14 15 16 17 18 19 20 21 22 23 24
000
FTUS41 KBUF 240202 AAA
TAFIAG
TAF AMD
KIAG 240202Z 2402/2424 16015G25KT P6SM VCSH SCT050 OVC110
     FM240300 16018G26KT 4SM SHRA OVC035
     FM240700 19014G22KT P6SM BKN120
     FM241000 21015G23KT P6SM BKN035
     FM241500 21013G20KT P6SM BKN040=

USA.gov is the U.S. government's official web portal to all federal, state and local government web resources and services.